sensor_id;sensor_type;location;lat;lon;timestamp;pressure;altitude;pressure_sealevel;temperature;humidity
15229;BME280;7717;47.792;12.076;2023-12-22T00:01:24;94630.72;;;6.89;95.76
15229;BME280;7717;47.792;12.076;2023-12-22T00:03:50;94629.31;;;6.71;93.47
15229;BME280;7717;47.792;12.076;2023-12-22T00:06:15;94659.19;;;6.70;94.86
15229;BME280;7717;47.792;12.076;2023-12-22T00:08:41;94653.22;;;6.62;94.53
15229;BME280;7717;47.792;12.076;2023-12-22T00:11:08;94632.41;;;6.39;93.61
15229;BME280;7717;47.792;12.076;2023-12-22T00:13:34;94693.63;;;6.53;95.31
15229;BME280;7717;47.792;12.076;2023-12-22T00:16:00;94668.97;;;6.62;94.57
15229;BME280;7717;47.792;12.076;2023-12-22T00:18:26;94653.81;;;6.43;94.56
15229;BME280;7717;47.792;12.076;2023-12-22T00:20:52;94662.31;;;6.45;95.06
15229;BME280;7717;47.792;12.076;2023-12-22T00:23:18;94670.25;;;6.51;93.93
15229;BME280;7717;47.792;12.076;2023-12-22T00:25:44;94661.03;;;6.41;95.33
15229;BME280;7717;47.792;12.076;2023-12-22T00:28:10;94633.34;;;6.17;96.27
15229;BME280;7717;47.792;12.076;2023-12-22T00:30:36;94662.16;;;6.17;97.10
15229;BME280;7717;47.792;12.076;2023-12-22T00:33:02;94651.41;;;6.12;97.11
15229;BME280;7717;47.792;12.076;2023-12-22T00:35:28;94657.91;;;6.16;96.12
15229;BME280;7717;47.792;12.076;2023-12-22T00:37:54;94603.00;;;5.93;96.16
15229;BME280;7717;47.792;12.076;2023-12-22T00:40:19;94679.03;;;6.14;97.02
15229;BME280;7717;47.792;12.076;2023-12-22T00:42:45;94702.19;;;6.11;98.01
15229;BME280;7717;47.792;12.076;2023-12-22T00:45:11;94700.75;;;5.85;98.96
15229;BME280;7717;47.792;12.076;2023-12-22T00:47:37;94743.78;;;5.91;97.44
15229;BME280;7717;47.792;12.076;2023-12-22T00:50:03;94691.63;;;5.06;98.65
15229;BME280;7717;47.792;12.076;2023-12-22T00:52:30;94756.88;;;4.61;100.00
15229;BME280;7717;47.792;12.076;2023-12-22T00:54:56;94762.00;;;3.67;100.00
15229;BME280;7717;47.792;12.076;2023-12-22T00:57:22;94772.75;;;3.15;100.00
15229;BME280;7717;47.792;12.076;2023-12-22T00:59:48;94773.50;;;2.75;100.00
15229;BME280;7717;47.792;12.076;2023-12-22T01:02:20;94762.63;;;2.37;100.00
15229;BME280;7717;47.792;12.076;2023-12-22T01:04:46;94765.91;;;2.14;100.00
15229;BME280;7717;47.792;12.076;2023-12-22T01:07:12;94779.25;;;2.11;100.00
15229;BME280;7717;47.792;12.076;2023-12-22T01:09:39;94761.91;;;1.93;100.00
15229;BME280;7717;47.792;12.076;2023-12-22T01:12:06;94734.47;;;1.73;100.00
15229;BME280;7717;47.792;12.076;2023-12-22T01:14:38;94665.97;;;1.31;100.00
15229;BME280;7717;47.792;12.076;2023-12-22T01:17:03;94764.97;;;1.89;100.00
15229;BME280;7717;47.792;12.076;2023-12-22T01:19:29;94762.22;;;1.90;100.00
15229;BME280;7717;47.792;12.076;2023-12-22T01:21:55;94778.94;;;1.88;100.00
15229;BME280;7717;47.792;12.076;2023-12-22T01:24:21;94782.34;;;1.88;100.00
15229;BME280;7717;47.792;12.076;2023-12-22T01:26:46;94798.63;;;1.90;100.00
15229;BME280;7717;47.792;12.076;2023-12-22T01:29:12;94787.50;;;1.80;100.00
15229;BME280;7717;47.792;12.076;2023-12-22T01:31:37;94796.59;;;1.76;100.00
15229;BME280;7717;47.792;12.076;2023-12-22T01:34:03;94819.38;;;1.82;100.00
15229;BME280;7717;47.792;12.076;2023-12-22T01:36:29;94814.72;;;1.68;100.00
15229;BME280;7717;47.792;12.076;2023-12-22T01:38:55;94822.66;;;1.67;100.00
15229;BME280;7717;47.792;12.076;2023-12-22T01:41:21;94833.38;;;1.64;100.00
15229;BME280;7717;47.792;12.076;2023-12-22T01:43:47;94850.75;;;1.63;100.00
15229;BME280;7717;47.792;12.076;2023-12-22T01:46:14;94856.84;;;1.54;100.00
15229;BME280;7717;47.792;12.076;2023-12-22T01:48:40;94848.91;;;1.55;100.00
15229;BME280;7717;47.792;12.076;2023-12-22T01:51:07;94838.53;;;1.38;100.00
15229;BME280;7717;47.792;12.076;2023-12-22T01:53:36;94855.00;;;1.46;100.00
15229;BME280;7717;47.792;12.076;2023-12-22T01:56:02;94855.75;;;1.39;100.00
15229;BME280;7717;47.792;12.076;2023-12-22T01:58:29;94857.44;;;1.30;100.00
15229;BME280;7717;47.792;12.076;2023-12-22T02:00:56;94878.00;;;1.24;100.00
15229;BME280;7717;47.792;12.076;2023-12-22T02:03:22;94867.06;;;1.20;100.00
15229;BME280;7717;47.792;12.076;2023-12-22T02:05:49;94834.25;;;1.01;100.00
15229;BME280;7717;47.792;12.076;2023-12-22T02:08:18;94861.00;;;1.11;100.00
15229;BME280;7717;47.792;12.076;2023-12-22T02:10:46;94877.22;;;1.13;100.00
15229;BME280;7717;47.792;12.076;2023-12-22T02:13:14;94861.00;;;1.11;100.00
15229;BME280;7717;47.792;12.076;2023-12-22T02:15:43;94852.91;;;1.14;100.00
15229;BME280;7717;47.792;12.076;2023-12-22T02:18:21;94852.16;;;1.22;100.00
15229;BME280;7717;47.792;12.076;2023-12-22T02:20:50;94859.81;;;1.24;100.00
15229;BME280;7717;47.792;12.076;2023-12-22T02:23:16;94854.63;;;1.24;100.00
15229;BME280;7717;47.792;12.076;2023-12-22T02:25:42;94855.91;;;1.37;100.00
15229;BME280;7717;47.792;12.076;2023-12-22T02:28:11;94873.25;;;1.54;100.00
15229;BME280;7717;47.792;12.076;2023-12-22T02:30:48;94868.69;;;1.66;100.00
15229;BME280;7717;47.792;12.076;2023-12-22T02:33:18;94870.69;;;1.72;100.00
15229;BME280;7717;47.792;12.076;2023-12-22T02:35:49;94866.13;;;1.74;100.00
15229;BME280;7717;47.792;12.076;2023-12-22T02:38:19;94874.59;;;1.76;100.00
15229;BME280;7717;47.792;12.076;2023-12-22T02:40:46;94878.31;;;1.74;100.00
15229;BME280;7717;47.792;12.076;2023-12-22T02:43:12;94831.16;;;1.51;100.00
15229;BME280;7717;47.792;12.076;2023-12-22T02:45:38;94862.25;;;1.60;100.00
15229;BME280;7717;47.792;12.076;2023-12-22T02:48:09;94876.91;;;1.79;100.00
15229;BME280;7717;47.792;12.076;2023-12-22T02:50:39;94881.28;;;1.79;100.00
15229;BME280;7717;47.792;12.076;2023-12-22T02:53:10;94889.53;;;1.74;100.00
15229;BME280;7717;47.792;12.076;2023-12-22T02:55:36;94884.91;;;1.68;100.00
15229;BME280;7717;47.792;12.076;2023-12-22T02:58:02;94867.19;;;1.64;100.00
15229;BME280;7717;47.792;12.076;2023-12-22T03:00:28;94853.06;;;1.48;100.00
15229;BME280;7717;47.792;12.076;2023-12-22T03:02:53;94841.63;;;1.59;100.00
15229;BME280;7717;47.792;12.076;2023-12-22T03:05:19;94841.41;;;1.52;100.00
15229;BME280;7717;47.792;12.076;2023-12-22T03:07:45;94831.09;;;1.43;100.00
15229;BME280;7717;47.792;12.076;2023-12-22T03:10:11;94821.78;;;1.40;100.00
15229;BME280;7717;47.792;12.076;2023-12-22T03:12:37;94829.47;;;1.59;100.00
15229;BME280;7717;47.792;12.076;2023-12-22T03:15:04;94819.06;;;1.59;100.00
15229;BME280;7717;47.792;12.076;2023-12-22T03:17:36;94822.44;;;1.60;100.00
15229;BME280;7717;47.792;12.076;2023-12-22T03:20:02;94824.75;;;1.63;100.00
15229;BME280;7717;47.792;12.076;2023-12-22T03:22:29;94814.06;;;1.66;100.00
15229;BME280;7717;47.792;12.076;2023-12-22T03:24:55;94799.50;;;1.55;100.00
15229;BME280;7717;47.792;12.076;2023-12-22T03:27:23;94803.22;;;1.53;100.00
15229;BME280;7717;47.792;12.076;2023-12-22T03:29:52;94793.88;;;1.42;100.00
15229;BME280;7717;47.792;12.076;2023-12-22T03:32:21;94815.50;;;1.25;100.00
15229;BME280;7717;47.792;12.076;2023-12-22T03:34:46;94801.63;;;1.16;100.00
15229;BME280;7717;47.792;12.076;2023-12-22T03:37:12;94811.31;;;0.97;100.00
15229;BME280;7717;47.792;12.076;2023-12-22T03:39:37;94813.81;;;0.71;100.00
15229;BME280;7717;47.792;12.076;2023-12-22T03:42:02;94795.34;;;0.74;100.00
15229;BME280;7717;47.792;12.076;2023-12-22T03:44:28;94788.31;;;0.84;100.00
15229;BME280;7717;47.792;12.076;2023-12-22T03:46:53;94806.19;;;0.87;100.00
15229;BME280;7717;47.792;12.076;2023-12-22T03:49:22;94798.41;;;0.87;100.00
15229;BME280;7717;47.792;12.076;2023-12-22T03:51:47;94773.84;;;0.82;100.00
15229;BME280;7717;47.792;12.076;2023-12-22T03:54:13;94785.13;;;0.90;100.00
15229;BME280;7717;47.792;12.076;2023-12-22T03:56:41;94789.59;;;0.98;100.00
15229;BME280;7717;47.792;12.076;2023-12-22T03:59:06;94801.69;;;1.07;100.00
15229;BME280;7717;47.792;12.076;2023-12-22T04:01:35;94789.91;;;1.12;100.00
15229;BME280;7717;47.792;12.076;2023-12-22T04:04:00;94759.84;;;1.10;100.00
15229;BME280;7717;47.792;12.076;2023-12-22T04:06:26;94766.44;;;1.04;100.00
15229;BME280;7717;47.792;12.076;2023-12-22T04:08:52;94772.22;;;0.98;100.00
15229;BME280;7717;47.792;12.076;2023-12-22T04:11:17;94757.31;;;0.83;100.00
15229;BME280;7717;47.792;12.076;2023-12-22T04:13:43;94758.66;;;1.04;100.00
15229;BME280;7717;47.792;12.076;2023-12-22T04:16:12;94767.38;;;1.21;100.00
15229;BME280;7717;47.792;12.076;2023-12-22T04:18:37;94771.31;;;1.43;100.00
15229;BME280;7717;47.792;12.076;2023-12-22T04:21:03;94765.97;;;1.44;100.00
15229;BME280;7717;47.792;12.076;2023-12-22T04:23:29;94780.72;;;1.87;100.00
15229;BME280;7717;47.792;12.076;2023-12-22T04:25:55;94760.69;;;2.48;100.00
15229;BME280;7717;47.792;12.076;2023-12-22T04:28:20;94756.94;;;2.42;100.00
15229;BME280;7717;47.792;12.076;2023-12-22T04:30:46;94770.47;;;3.04;100.00
15229;BME280;7717;47.792;12.076;2023-12-22T04:33:12;94783.03;;;3.33;100.00
15229;BME280;7717;47.792;12.076;2023-12-22T04:35:38;94775.91;;;3.51;100.00
15229;BME280;7717;47.792;12.076;2023-12-22T04:38:03;94751.94;;;3.55;100.00
15229;BME280;7717;47.792;12.076;2023-12-22T04:40:29;94802.78;;;3.51;100.00
15229;BME280;7717;47.792;12.076;2023-12-22T04:42:54;94789.41;;;3.46;100.00
15229;BME280;7717;47.792;12.076;2023-12-22T04:45:20;94798.53;;;3.75;100.00
15229;BME280;7717;47.792;12.076;2023-12-22T04:47:45;94792.03;;;3.79;100.00
15229;BME280;7717;47.792;12.076;2023-12-22T04:50:11;94753.38;;;3.74;100.00
15229;BME280;7717;47.792;12.076;2023-12-22T04:52:39;94761.16;;;4.07;100.00
15229;BME280;7717;47.792;12.076;2023-12-22T04:55:05;94759.84;;;4.19;98.64
15229;BME280;7717;47.792;12.076;2023-12-22T04:57:31;94770.78;;;4.06;100.00
15229;BME280;7717;47.792;12.076;2023-12-22T04:59:56;94772.13;;;3.78;100.00
15229;BME280;7717;47.792;12.076;2023-12-22T05:02:22;94776.03;;;3.74;100.00
15229;BME280;7717;47.792;12.076;2023-12-22T05:04:48;94766.41;;;3.34;100.00
15229;BME280;7717;47.792;12.076;2023-12-22T05:07:14;94789.88;;;3.34;100.00
15229;BME280;7717;47.792;12.076;2023-12-22T05:09:43;94782.25;;;3.32;100.00
15229;BME280;7717;47.792;12.076;2023-12-22T05:12:11;94798.41;;;3.52;100.00
15229;BME280;7717;47.792;12.076;2023-12-22T05:14:37;94800.50;;;3.89;100.00
15229;BME280;7717;47.792;12.076;2023-12-22T05:17:03;94800.34;;;3.98;100.00
15229;BME280;7717;47.792;12.076;2023-12-22T05:19:32;94800.19;;;3.84;100.00
15229;BME280;7717;47.792;12.076;2023-12-22T05:21:57;94798.84;;;4.04;100.00
15229;BME280;7717;47.792;12.076;2023-12-22T05:24:23;94778.75;;;4.13;100.00
15229;BME280;7717;47.792;12.076;2023-12-22T05:26:51;94775.13;;;4.38;100.00
15229;BME280;7717;47.792;12.076;2023-12-22T05:29:17;94779.53;;;4.37;100.00
15229;BME280;7717;47.792;12.076;2023-12-22T05:31:45;94758.56;;;4.54;98.92
15229;BME280;7717;47.792;12.076;2023-12-22T05:34:10;94774.22;;;4.54;99.96
15229;BME280;7717;47.792;12.076;2023-12-22T05:36:36;94763.41;;;4.65;99.35
15229;BME280;7717;47.792;12.076;2023-12-22T05:39:02;94776.69;;;4.86;97.88
15229;BME280;7717;47.792;12.076;2023-12-22T05:41:32;94800.88;;;4.88;96.87
15229;BME280;7717;47.792;12.076;2023-12-22T05:44:01;94797.34;;;4.73;98.08
15229;BME280;7717;47.792;12.076;2023-12-22T05:46:26;94791.31;;;5.03;96.06
15229;BME280;7717;47.792;12.076;2023-12-22T05:48:52;94785.03;;;5.12;95.47
15229;BME280;7717;47.792;12.076;2023-12-22T05:51:18;94778.84;;;5.13;94.61
15229;BME280;7717;47.792;12.076;2023-12-22T05:53:43;94771.47;;;5.17;93.08
15229;BME280;7717;47.792;12.076;2023-12-22T05:56:19;94755.88;;;5.01;94.54
15229;BME280;7717;47.792;12.076;2023-12-22T05:58:45;94784.19;;;5.20;93.88
15229;BME280;7717;47.792;12.076;2023-12-22T06:01:17;94785.38;;;5.17;94.49
15229;BME280;7717;47.792;12.076;2023-12-22T06:03:47;94810.28;;;5.28;93.10
15229;BME280;7717;47.792;12.076;2023-12-22T06:06:13;94793.94;;;5.03;95.40
15229;BME280;7717;47.792;12.076;2023-12-22T06:08:39;94748.59;;;4.88;96.17
15229;BME280;7717;47.792;12.076;2023-12-22T06:11:05;94803.47;;;4.88;98.87
15229;BME280;7717;47.792;12.076;2023-12-22T06:13:31;94725.56;;;4.14;100.00
15229;BME280;7717;47.792;12.076;2023-12-22T06:16:00;94807.34;;;4.61;100.00
15229;BME280;7717;47.792;12.076;2023-12-22T06:18:25;94796.44;;;4.58;100.00
15229;BME280;7717;47.792;12.076;2023-12-22T06:20:50;94808.31;;;4.60;100.00
15229;BME280;7717;47.792;12.076;2023-12-22T06:23:16;94804.81;;;4.37;100.00
15229;BME280;7717;47.792;12.076;2023-12-22T06:25:42;94748.72;;;4.25;100.00
15229;BME280;7717;47.792;12.076;2023-12-22T06:28:07;94781.78;;;4.32;100.00
15229;BME280;7717;47.792;12.076;2023-12-22T06:30:33;94766.69;;;4.12;100.00
15229;BME280;7717;47.792;12.076;2023-12-22T06:32:58;94818.50;;;4.47;100.00
15229;BME280;7717;47.792;12.076;2023-12-22T06:35:24;94811.34;;;4.33;100.00
15229;BME280;7717;47.792;12.076;2023-12-22T06:37:53;94823.91;;;4.37;100.00
15229;BME280;7717;47.792;12.076;2023-12-22T06:40:21;94771.63;;;3.98;100.00
15229;BME280;7717;47.792;12.076;2023-12-22T06:42:46;94833.38;;;4.38;100.00
15229;BME280;7717;47.792;12.076;2023-12-22T06:45:12;94801.72;;;4.33;100.00
15229;BME280;7717;47.792;12.076;2023-12-22T06:47:37;94839.53;;;4.46;100.00
15229;BME280;7717;47.792;12.076;2023-12-22T06:50:03;94804.50;;;4.32;100.00
15229;BME280;7717;47.792;12.076;2023-12-22T06:52:29;94839.66;;;4.68;100.00
15229;BME280;7717;47.792;12.076;2023-12-22T06:54:56;94869.06;;;4.70;100.00
15229;BME280;7717;47.792;12.076;2023-12-22T06:57:22;94865.94;;;4.67;100.00
15229;BME280;7717;47.792;12.076;2023-12-22T06:59:47;94896.00;;;4.71;100.00
15229;BME280;7717;47.792;12.076;2023-12-22T07:02:15;94856.81;;;4.71;100.00
15229;BME280;7717;47.792;12.076;2023-12-22T07:07:46;94832.53;;;4.46;100.00
15229;BME280;7717;47.792;12.076;2023-12-22T07:10:11;94865.06;;;4.91;100.00
15229;BME280;7717;47.792;12.076;2023-12-22T07:12:38;94864.00;;;4.69;100.00
15229;BME280;7717;47.792;12.076;2023-12-22T07:15:05;94887.38;;;5.09;99.03
15229;BME280;7717;47.792;12.076;2023-12-22T07:17:32;94885.81;;;5.31;96.52
15229;BME280;7717;47.792;12.076;2023-12-22T07:19:57;94902.91;;;5.42;94.92
15229;BME280;7717;47.792;12.076;2023-12-22T07:22:23;94891.19;;;5.38;95.97
15229;BME280;7717;47.792;12.076;2023-12-22T07:24:49;94856.25;;;5.53;93.38
15229;BME280;7717;47.792;12.076;2023-12-22T07:27:17;94913.91;;;5.68;93.22
15229;BME280;7717;47.792;12.076;2023-12-22T07:29:42;94901.91;;;5.51;94.21
15229;BME280;7717;47.792;12.076;2023-12-22T07:32:08;94907.97;;;5.43;94.30
15229;BME280;7717;47.792;12.076;2023-12-22T07:34:33;94884.69;;;5.56;92.44
15229;BME280;7717;47.792;12.076;2023-12-22T07:36:59;94899.88;;;5.61;92.58
15229;BME280;7717;47.792;12.076;2023-12-22T07:39:24;94887.41;;;5.32;94.32
15229;BME280;7717;47.792;12.076;2023-12-22T07:41:50;94911.31;;;5.29;95.92
15229;BME280;7717;47.792;12.076;2023-12-22T07:44:15;94917.75;;;5.18;95.70
15229;BME280;7717;47.792;12.076;2023-12-22T07:46:41;94928.50;;;5.24;95.53
15229;BME280;7717;47.792;12.076;2023-12-22T07:49:07;94929.22;;;5.01;98.19
15229;BME280;7717;47.792;12.076;2023-12-22T07:51:33;94925.97;;;4.99;98.43
15229;BME280;7717;47.792;12.076;2023-12-22T07:53:58;94934.03;;;4.82;100.00
15229;BME280;7717;47.792;12.076;2023-12-22T07:56:24;94915.13;;;4.63;100.00
15229;BME280;7717;47.792;12.076;2023-12-22T07:58:50;94916.63;;;4.50;100.00
15229;BME280;7717;47.792;12.076;2023-12-22T08:01:15;94945.50;;;4.56;100.00
15229;BME280;7717;47.792;12.076;2023-12-22T08:03:41;94943.56;;;4.42;100.00
15229;BME280;7717;47.792;12.076;2023-12-22T08:06:06;94963.31;;;4.45;100.00
15229;BME280;7717;47.792;12.076;2023-12-22T08:08:33;94953.50;;;4.55;100.00
15229;BME280;7717;47.792;12.076;2023-12-22T08:11:00;94934.59;;;4.45;100.00
15229;BME280;7717;47.792;12.076;2023-12-22T08:13:25;94972.41;;;4.81;100.00
15229;BME280;7717;47.792;12.076;2023-12-22T08:15:50;94948.91;;;4.73;100.00
15229;BME280;7717;47.792;12.076;2023-12-22T08:18:16;94973.53;;;4.95;100.00
15229;BME280;7717;47.792;12.076;2023-12-22T08:20:41;94972.69;;;5.02;100.00
15229;BME280;7717;47.792;12.076;2023-12-22T08:23:08;94966.94;;;5.15;100.00
15229;BME280;7717;47.792;12.076;2023-12-22T08:25:33;94974.25;;;5.28;99.09
15229;BME280;7717;47.792;12.076;2023-12-22T08:27:58;94971.78;;;5.34;97.95
15229;BME280;7717;47.792;12.076;2023-12-22T08:30:24;94961.13;;;5.44;96.41
15229;BME280;7717;47.792;12.076;2023-12-22T08:32:50;94990.22;;;5.49;95.53
15229;BME280;7717;47.792;12.076;2023-12-22T08:35:15;94996.53;;;5.63;95.37
15229;BME280;7717;47.792;12.076;2023-12-22T08:37:42;95022.84;;;5.69;94.19
15229;BME280;7717;47.792;12.076;2023-12-22T08:40:08;94990.88;;;5.43;93.74
15229;BME280;7717;47.792;12.076;2023-12-22T08:42:33;95008.53;;;5.88;91.15
15229;BME280;7717;47.792;12.076;2023-12-22T08:44:59;95020.50;;;5.82;92.10
15229;BME280;7717;47.792;12.076;2023-12-22T08:47:24;95029.63;;;5.86;91.23
15229;BME280;7717;47.792;12.076;2023-12-22T08:49:50;95006.44;;;5.75;92.36
15229;BME280;7717;47.792;12.076;2023-12-22T08:52:15;95033.22;;;5.85;92.80
15229;BME280;7717;47.792;12.076;2023-12-22T08:54:41;95040.66;;;5.66;95.66
15229;BME280;7717;47.792;12.076;2023-12-22T08:57:06;95045.00;;;5.42;97.70
15229;BME280;7717;47.792;12.076;2023-12-22T08:59:32;95038.19;;;5.25;98.10
15229;BME280;7717;47.792;12.076;2023-12-22T09:01:58;95034.63;;;5.10;99.91
15229;BME280;7717;47.792;12.076;2023-12-22T09:04:24;95047.69;;;4.86;100.00
15229;BME280;7717;47.792;12.076;2023-12-22T09:06:50;94998.56;;;4.57;100.00
15229;BME280;7717;47.792;12.076;2023-12-22T09:09:15;95053.09;;;4.76;100.00
15229;BME280;7717;47.792;12.076;2023-12-22T09:11:41;95055.41;;;4.71;100.00
15229;BME280;7717;47.792;12.076;2023-12-22T09:14:06;95052.44;;;4.74;100.00
15229;BME280;7717;47.792;12.076;2023-12-22T09:16:36;95052.13;;;4.61;100.00
15229;BME280;7717;47.792;12.076;2023-12-22T09:19:01;95045.91;;;4.94;100.00
15229;BME280;7717;47.792;12.076;2023-12-22T09:21:27;95054.41;;;4.88;100.00
15229;BME280;7717;47.792;12.076;2023-12-22T09:23:52;95065.53;;;4.90;100.00
15229;BME280;7717;47.792;12.076;2023-12-22T09:26:18;95056.84;;;4.82;100.00
15229;BME280;7717;47.792;12.076;2023-12-22T09:28:44;95051.00;;;4.71;100.00
15229;BME280;7717;47.792;12.076;2023-12-22T09:31:13;95056.50;;;5.01;100.00
15229;BME280;7717;47.792;12.076;2023-12-22T09:33:40;95052.25;;;5.16;100.00
15229;BME280;7717;47.792;12.076;2023-12-22T09:36:06;95022.22;;;5.04;100.00
15229;BME280;7717;47.792;12.076;2023-12-22T09:38:32;95031.44;;;5.39;100.00
15229;BME280;7717;47.792;12.076;2023-12-22T09:40:58;95038.44;;;5.46;100.00
15229;BME280;7717;47.792;12.076;2023-12-22T09:43:24;95030.88;;;5.59;98.89
15229;BME280;7717;47.792;12.076;2023-12-22T09:45:50;95038.38;;;5.71;97.16
15229;BME280;7717;47.792;12.076;2023-12-22T09:48:20;95021.16;;;5.84;97.11
15229;BME280;7717;47.792;12.076;2023-12-22T09:50:52;95009.81;;;5.92;96.56
15229;BME280;7717;47.792;12.076;2023-12-22T09:53:19;95011.28;;;5.94;94.82
15229;BME280;7717;47.792;12.076;2023-12-22T09:55:46;95034.53;;;5.97;93.67
15229;BME280;7717;47.792;12.076;2023-12-22T09:58:15;95014.88;;;5.93;93.52
15229;BME280;7717;47.792;12.076;2023-12-22T10:00:42;95006.59;;;5.82;93.71
15229;BME280;7717;47.792;12.076;2023-12-22T10:03:09;95012.97;;;5.87;93.15
15229;BME280;7717;47.792;12.076;2023-12-22T10:05:35;95040.94;;;5.79;95.22
15229;BME280;7717;47.792;12.076;2023-12-22T10:08:03;95048.34;;;5.67;96.13
15229;BME280;7717;47.792;12.076;2023-12-22T10:10:33;95066.28;;;5.31;100.00
15229;BME280;7717;47.792;12.076;2023-12-22T10:12:59;95085.94;;;5.03;100.00
15229;BME280;7717;47.792;12.076;2023-12-22T10:15:26;95077.28;;;4.78;100.00
15229;BME280;7717;47.792;12.076;2023-12-22T10:17:54;95051.63;;;4.65;100.00
15229;BME280;7717;47.792;12.076;2023-12-22T10:20:20;95035.63;;;4.68;100.00
15229;BME280;7717;47.792;12.076;2023-12-22T10:22:45;95046.56;;;4.56;100.00
15229;BME280;7717;47.792;12.076;2023-12-22T10:25:14;95045.91;;;4.46;100.00
15229;BME280;7717;47.792;12.076;2023-12-22T10:27:43;95027.44;;;4.39;100.00
15229;BME280;7717;47.792;12.076;2023-12-22T10:30:09;95012.44;;;4.25;100.00
15229;BME280;7717;47.792;12.076;2023-12-22T10:32:39;95034.75;;;4.19;100.00
15229;BME280;7717;47.792;12.076;2023-12-22T10:35:08;95029.53;;;4.11;100.00
15229;BME280;7717;47.792;12.076;2023-12-22T10:37:34;95032.78;;;4.05;100.00
15229;BME280;7717;47.792;12.076;2023-12-22T10:39:59;95031.31;;;4.03;100.00
15229;BME280;7717;47.792;12.076;2023-12-22T10:42:25;95024.94;;;3.97;100.00
15229;BME280;7717;47.792;12.076;2023-12-22T10:44:54;94935.88;;;3.34;100.00
15229;BME280;7717;47.792;12.076;2023-12-22T10:47:22;95007.75;;;3.70;100.00
15229;BME280;7717;47.792;12.076;2023-12-22T10:49:48;95017.66;;;3.67;100.00
15229;BME280;7717;47.792;12.076;2023-12-22T10:52:17;94970.44;;;3.36;100.00
15229;BME280;7717;47.792;12.076;2023-12-22T10:54:48;95012.44;;;3.58;100.00
15229;BME280;7717;47.792;12.076;2023-12-22T10:57:17;94998.41;;;3.59;100.00
15229;BME280;7717;47.792;12.076;2023-12-22T10:59:47;94984.19;;;3.54;100.00
15229;BME280;7717;47.792;12.076;2023-12-22T11:02:15;94971.63;;;3.49;100.00
15229;BME280;7717;47.792;12.076;2023-12-22T11:04:47;94977.72;;;3.58;100.00
15229;BME280;7717;47.792;12.076;2023-12-22T11:07:16;94975.75;;;3.60;100.00
15229;BME280;7717;47.792;12.076;2023-12-22T11:09:44;94968.59;;;3.62;100.00
15229;BME280;7717;47.792;12.076;2023-12-22T11:12:13;94958.16;;;3.62;100.00
15229;BME280;7717;47.792;12.076;2023-12-22T11:14:39;94974.94;;;3.68;100.00
15229;BME280;7717;47.792;12.076;2023-12-22T11:17:06;94952.16;;;3.78;100.00
15229;BME280;7717;47.792;12.076;2023-12-22T11:19:35;94943.41;;;4.11;100.00
15229;BME280;7717;47.792;12.076;2023-12-22T11:22:03;94972.13;;;4.35;100.00
15229;BME280;7717;47.792;12.076;2023-12-22T11:24:30;94959.53;;;4.55;100.00
15229;BME280;7717;47.792;12.076;2023-12-22T11:26:57;94950.50;;;4.90;100.00
15229;BME280;7717;47.792;12.076;2023-12-22T11:29:24;94942.97;;;4.95;100.00
15229;BME280;7717;47.792;12.076;2023-12-22T11:31:53;94949.75;;;5.20;100.00
15229;BME280;7717;47.792;12.076;2023-12-22T11:34:23;94958.84;;;5.41;100.00
15229;BME280;7717;47.792;12.076;2023-12-22T11:36:51;94951.00;;;5.41;100.00
15229;BME280;7717;47.792;12.076;2023-12-22T11:39:17;94938.41;;;5.44;100.00
15229;BME280;7717;47.792;12.076;2023-12-22T11:41:43;94944.47;;;5.37;100.00
15229;BME280;7717;47.792;12.076;2023-12-22T11:44:12;94940.00;;;5.45;100.00
15229;BME280;7717;47.792;12.076;2023-12-22T11:46:38;94932.25;;;5.60;100.00
15229;BME280;7717;47.792;12.076;2023-12-22T11:49:03;94894.00;;;5.28;100.00
15229;BME280;7717;47.792;12.076;2023-12-22T11:51:33;94928.41;;;5.48;100.00
15229;BME280;7717;47.792;12.076;2023-12-22T11:54:01;94942.97;;;5.42;100.00
15229;BME280;7717;47.792;12.076;2023-12-22T11:56:28;94940.81;;;5.46;100.00
15229;BME280;7717;47.792;12.076;2023-12-22T11:58:54;94923.78;;;5.58;100.00
15229;BME280;7717;47.792;12.076;2023-12-22T12:01:21;94941.84;;;5.45;100.00
15229;BME280;7717;47.792;12.076;2023-12-22T12:03:55;94937.75;;;5.42;100.00
15229;BME280;7717;47.792;12.076;2023-12-22T12:08:57;94928.41;;;5.48;100.00
15229;BME280;7717;47.792;12.076;2023-12-22T12:11:23;94940.50;;;5.49;100.00
15229;BME280;7717;47.792;12.076;2023-12-22T12:13:49;94941.97;;;5.51;100.00
15229;BME280;7717;47.792;12.076;2023-12-22T12:16:19;94944.22;;;5.54;100.00
15229;BME280;7717;47.792;12.076;2023-12-22T12:18:46;94934.38;;;5.65;100.00
15229;BME280;7717;47.792;12.076;2023-12-22T12:21:15;94945.72;;;5.49;100.00
15229;BME280;7717;47.792;12.076;2023-12-22T12:23:41;94944.59;;;5.51;100.00
15229;BME280;7717;47.792;12.076;2023-12-22T12:26:07;94943.06;;;5.57;100.00
15229;BME280;7717;47.792;12.076;2023-12-22T12:28:35;94940.63;;;5.55;100.00
15229;BME280;7717;47.792;12.076;2023-12-22T12:31:06;94915.31;;;5.48;100.00
15229;BME280;7717;47.792;12.076;2023-12-22T12:33:35;94934.84;;;5.68;100.00
15229;BME280;7717;47.792;12.076;2023-12-22T12:36:06;94931.91;;;5.63;100.00
15229;BME280;7717;47.792;12.076;2023-12-22T12:39:07;94922.59;;;5.60;100.00
15229;BME280;7717;47.792;12.076;2023-12-22T12:41:40;94941.59;;;5.54;100.00
15229;BME280;7717;47.792;12.076;2023-12-22T12:44:09;94925.72;;;5.64;100.00
15229;BME280;7717;47.792;12.076;2023-12-22T12:46:40;94921.75;;;5.68;100.00
15229;BME280;7717;47.792;12.076;2023-12-22T12:49:11;94931.41;;;5.68;100.00
15229;BME280;7717;47.792;12.076;2023-12-22T12:51:37;94926.00;;;5.69;100.00
15229;BME280;7717;47.792;12.076;2023-12-22T12:54:10;94921.66;;;5.53;100.00
15229;BME280;7717;47.792;12.076;2023-12-22T12:56:46;94909.75;;;5.51;100.00
15229;BME280;7717;47.792;12.076;2023-12-22T12:59:14;94881.41;;;5.32;100.00
15229;BME280;7717;47.792;12.076;2023-12-22T13:01:44;94887.56;;;5.39;100.00
15229;BME280;7717;47.792;12.076;2023-12-22T13:04:11;94893.44;;;5.41;100.00
15229;BME280;7717;47.792;12.076;2023-12-22T13:06:50;94905.66;;;5.48;100.00